createdAt,value
2019-05-14T00:01:03.222Z,13.19
2019-05-14T00:03:32.947Z,13.21
2019-05-14T00:06:02.433Z,13.19
2019-05-14T00:08:31.825Z,13.15
2019-05-14T00:11:01.617Z,13.04
2019-05-14T00:13:32.137Z,12.82
2019-05-14T00:16:01.725Z,12.65
2019-05-14T00:18:31.647Z,12.52
2019-05-14T00:21:02.002Z,12.50
2019-05-14T00:23:32.004Z,12.48
2019-05-14T00:26:01.995Z,12.55
2019-05-14T00:28:31.944Z,12.59
2019-05-14T00:31:02.903Z,12.61
2019-05-14T00:33:32.690Z,12.67
2019-05-14T00:36:02.342Z,12.73
2019-05-14T00:38:31.893Z,12.74
2019-05-14T00:41:01.926Z,12.82
2019-05-14T00:43:32.252Z,12.78
2019-05-14T00:46:01.971Z,12.77
2019-05-14T00:48:32.038Z,12.69
2019-05-14T00:51:02.357Z,12.73
2019-05-14T00:53:32.247Z,12.70
2019-05-14T00:56:02.338Z,12.68
2019-05-14T00:58:32.275Z,12.68
2019-05-14T01:01:01.883Z,12.75
2019-05-14T01:03:32.455Z,12.77
2019-05-14T01:06:02.924Z,12.80
2019-05-14T01:08:32.679Z,12.81
2019-05-14T01:11:02.064Z,12.79
2019-05-14T01:13:31.501Z,12.78
2019-05-14T01:16:01.574Z,12.80
2019-05-14T01:18:32.280Z,12.74
2019-05-14T01:21:01.844Z,12.78
2019-05-14T01:23:32.346Z,12.80
2019-05-14T01:26:02.420Z,12.77
2019-05-14T01:28:32.310Z,12.78
2019-05-14T01:31:01.907Z,12.71
2019-05-14T01:33:31.908Z,12.68
2019-05-14T01:36:02.261Z,12.64
2019-05-14T01:38:31.871Z,12.61
2019-05-14T01:41:01.999Z,12.56
2019-05-14T01:43:31.785Z,12.52
2019-05-14T01:46:01.946Z,12.54
2019-05-14T01:48:31.759Z,12.58
2019-05-14T01:51:01.729Z,12.65
2019-05-14T01:53:31.477Z,12.68
2019-05-14T01:56:01.665Z,12.77
2019-05-14T01:58:31.466Z,12.90
2019-05-14T02:01:02.053Z,12.93
2019-05-14T02:03:32.248Z,12.95
2019-05-14T02:06:01.988Z,12.89
2019-05-14T02:08:32.276Z,12.81
2019-05-14T02:11:02.112Z,12.68
2019-05-14T02:13:32.312Z,12.66
2019-05-14T02:16:02.680Z,12.66
2019-05-14T02:18:32.248Z,12.68
2019-05-14T02:21:01.883Z,12.67
2019-05-14T02:23:32.165Z,12.55
2019-05-14T02:26:02.488Z,12.53
2019-05-14T02:28:32.264Z,12.58
2019-05-14T02:31:03.692Z,12.52
2019-05-14T02:33:32.742Z,12.60
2019-05-14T02:36:02.144Z,12.58
2019-05-14T02:38:31.524Z,12.54
2019-05-14T02:41:01.020Z,12.53
2019-05-14T02:43:30.577Z,12.52
2019-05-14T02:46:10.835Z,12.43
2019-05-14T02:48:31.097Z,12.35
2019-05-14T02:51:00.475Z,12.36
2019-05-14T02:53:30.169Z,12.34
2019-05-14T02:55:59.873Z,12.33
2019-05-14T02:58:30.056Z,12.22
2019-05-14T03:01:00.624Z,12.20
2019-05-14T03:03:30.422Z,12.23
2019-05-14T03:06:00.593Z,12.23
2019-05-14T03:08:30.868Z,12.16
2019-05-14T03:11:00.706Z,12.02
2019-05-14T03:13:30.310Z,11.93
2019-05-14T03:15:59.824Z,11.85
2019-05-14T03:18:29.992Z,11.76
2019-05-14T03:21:00.735Z,11.82
2019-05-14T03:23:30.613Z,11.86
2019-05-14T03:26:00.866Z,11.87
2019-05-14T03:28:30.787Z,11.81
2019-05-14T03:31:03.225Z,11.74
2019-05-14T03:33:33.565Z,11.80
2019-05-14T03:36:08.869Z,11.89
2019-05-14T03:38:33.717Z,11.85
2019-05-14T03:41:03.093Z,11.89
2019-05-14T03:43:32.887Z,11.88
2019-05-14T03:46:02.342Z,11.92
2019-05-14T03:48:31.769Z,11.96
2019-05-14T03:51:01.149Z,12.05
2019-05-14T03:53:30.676Z,12.09
2019-05-14T03:56:00.921Z,12.13
2019-05-14T03:58:30.671Z,12.12
2019-05-14T04:01:02.877Z,12.18
2019-05-14T04:03:32.571Z,12.21
2019-05-14T04:06:03.232Z,12.17
2019-05-14T04:08:34.917Z,12.15
2019-05-14T04:11:04.294Z,12.10
2019-05-14T04:13:40.550Z,12.09
2019-05-14T04:16:11.514Z,12.10
2019-05-14T04:18:43.215Z,12.03
2019-05-14T04:21:14.249Z,11.97
2019-05-14T04:23:50.872Z,11.92
2019-05-14T04:26:23.364Z,12.04
2019-05-14T04:28:53.089Z,12.14
2019-05-14T04:31:22.590Z,12.16
2019-05-14T04:33:54.310Z,12.17
2019-05-14T04:36:23.803Z,12.17
2019-05-14T04:38:55.155Z,12.18
2019-05-14T04:41:24.390Z,12.19
2019-05-14T04:43:53.809Z,12.26
2019-05-14T04:46:23.220Z,12.32
2019-05-14T04:48:52.630Z,12.40
2019-05-14T04:51:22.301Z,12.43
2019-05-14T04:53:51.727Z,12.46
2019-05-14T04:56:21.312Z,12.49
2019-05-14T04:58:50.715Z,12.50
2019-05-14T05:01:20.967Z,12.46
2019-05-14T05:03:51.002Z,12.46
2019-05-14T05:06:20.557Z,12.50
2019-05-14T05:08:50.363Z,12.55
2019-05-14T05:11:21.358Z,12.62
2019-05-14T05:13:51.202Z,12.68
2019-05-14T05:16:20.604Z,12.74
2019-05-14T05:18:50.007Z,12.81
2019-05-14T05:21:19.557Z,12.83
2019-05-14T05:23:49.385Z,12.84
2019-05-14T05:26:18.945Z,12.75
2019-05-14T05:29:02.315Z,12.68
2019-05-14T05:31:19.479Z,12.76
2019-05-14T05:33:49.210Z,12.63
2019-05-14T05:36:18.781Z,12.65
2019-05-14T05:38:49.134Z,12.65
2019-05-14T05:41:19.308Z,12.56
2019-05-14T05:43:48.933Z,12.60
2019-05-14T05:46:19.155Z,12.54
2019-05-14T05:48:48.920Z,12.61
2019-05-14T05:51:18.872Z,12.81
2019-05-14T05:53:48.732Z,12.94
2019-05-14T05:56:18.752Z,12.94
2019-05-14T05:58:49.057Z,12.87
2019-05-14T06:01:19.745Z,12.94
2019-05-14T06:03:49.562Z,12.84
2019-05-14T06:06:19.426Z,12.89
2019-05-14T06:08:49.547Z,12.82
2019-05-14T06:11:19.540Z,12.72
2019-05-14T06:13:49.190Z,12.65
2019-05-14T06:16:18.906Z,12.73
2019-05-14T06:18:48.776Z,12.71
2019-05-14T06:21:19.279Z,12.79
2019-05-14T06:23:49.321Z,12.77
2019-05-14T06:26:19.577Z,12.70
2019-05-14T06:28:49.815Z,12.77
2019-05-14T06:31:19.676Z,12.78
2019-05-14T06:33:49.210Z,12.71
2019-05-14T06:36:19.747Z,12.91
2019-05-14T06:38:49.981Z,12.94
2019-05-14T06:41:19.698Z,12.94
2019-05-14T06:43:49.215Z,13.01
2019-05-14T06:46:19.358Z,13.07
2019-05-14T06:48:49.150Z,13.12
2019-05-14T06:51:20.110Z,13.04
2019-05-14T06:53:50.138Z,13.26
2019-05-14T06:56:21.675Z,13.36
2019-05-14T06:58:50.768Z,13.39
2019-05-14T07:01:20.152Z,13.65
2019-05-14T07:03:49.570Z,13.85
2019-05-14T07:06:18.972Z,13.91
2019-05-14T07:08:52.162Z,13.91
2019-05-14T07:11:19.447Z,14.11
2019-05-14T07:13:49.418Z,14.11
2019-05-14T07:16:21.034Z,14.15
2019-05-14T07:18:54.008Z,14.14
2019-05-14T07:21:21.600Z,13.99
2019-05-14T07:23:51.007Z,14.02
2019-05-14T07:26:20.464Z,14.02
2019-05-14T07:28:49.871Z,14.12
2019-05-14T07:31:19.438Z,14.30
2019-05-14T07:33:49.559Z,14.45
2019-05-14T07:36:19.278Z,14.54
2019-05-14T07:38:49.343Z,14.73
2019-05-14T07:41:19.577Z,14.73
2019-05-14T07:43:49.194Z,14.84
2019-05-14T07:46:19.324Z,14.92
2019-05-14T07:49:03.906Z,14.79
2019-05-14T07:51:19.932Z,14.84
2019-05-14T07:53:49.317Z,14.84
2019-05-14T07:56:21.344Z,14.80
2019-05-14T07:58:50.804Z,14.96
2019-05-14T08:01:20.298Z,15.21
2019-05-14T08:03:49.715Z,15.37
2019-05-14T08:06:19.277Z,15.51
2019-05-14T08:08:49.534Z,15.74
2019-05-14T08:11:19.410Z,15.77
2019-05-14T08:13:49.586Z,15.88
2019-05-14T08:16:19.285Z,15.97
2019-05-14T08:18:49.053Z,15.90
2019-05-14T08:21:19.537Z,15.93
2019-05-14T08:23:49.097Z,16.08
2019-05-14T08:26:19.367Z,16.38
2019-05-14T08:28:49.126Z,16.74
2019-05-14T08:31:18.983Z,16.88
2019-05-14T08:33:49.054Z,16.98
2019-05-14T08:36:18.836Z,16.60
2019-05-14T08:38:49.995Z,16.57
2019-05-14T08:41:19.933Z,16.41
2019-05-14T08:43:49.444Z,16.43
2019-05-14T08:46:19.323Z,16.29
2019-05-14T08:48:49.690Z,16.09
2019-05-14T08:51:19.491Z,16.12
2019-05-14T08:53:50.411Z,16.14
2019-05-14T08:56:20.067Z,16.30
2019-05-14T08:58:49.743Z,16.47
2019-05-14T09:01:19.774Z,16.45
2019-05-14T09:03:49.697Z,16.67
2019-05-14T09:06:19.375Z,16.76
2019-05-14T09:08:49.574Z,16.88
2019-05-14T09:11:24.776Z,17.09
2019-05-14T09:13:51.146Z,17.37
2019-05-14T09:16:37.058Z,17.62
2019-05-14T09:18:51.885Z,17.89
2019-05-14T09:21:21.381Z,17.86
2019-05-14T09:23:50.922Z,18.12
2019-05-14T09:26:20.508Z,18.04
2019-05-14T09:28:50.002Z,18.39
2019-05-14T09:31:20.155Z,18.65
2019-05-14T09:33:49.863Z,18.59
2019-05-14T09:36:23.596Z,18.35
2019-05-14T09:38:50.503Z,18.48
2019-05-14T09:41:20.198Z,18.44
2019-05-14T09:43:49.738Z,18.42
2019-05-14T09:46:19.187Z,17.90
2019-05-14T09:48:48.947Z,17.83
2019-05-14T09:51:18.694Z,17.76
2019-05-14T09:53:48.929Z,17.63
2019-05-14T09:56:18.971Z,17.47
2019-05-14T09:58:49.684Z,17.24
2019-05-14T10:01:19.727Z,17.30
2019-05-14T10:03:49.995Z,17.48
2019-05-14T10:06:20.720Z,17.50
2019-05-14T10:08:50.512Z,17.77
2019-05-14T10:11:20.087Z,17.56
2019-05-14T10:13:49.635Z,17.87
2019-05-14T10:16:19.253Z,17.91
2019-05-14T10:18:52.352Z,17.69
2019-05-14T10:21:19.987Z,17.63
2019-05-14T10:23:49.524Z,17.98
2019-05-14T10:26:18.945Z,18.26
2019-05-14T10:28:48.708Z,17.88
2019-05-14T10:31:19.016Z,17.82
2019-05-14T10:33:48.870Z,18.04
2019-05-14T10:36:19.224Z,18.01
2019-05-14T10:38:50.303Z,18.16
2019-05-14T10:41:22.953Z,18.21
2019-05-14T10:43:52.478Z,18.01
2019-05-14T10:46:24.208Z,17.52
2019-05-14T10:48:53.631Z,17.53
2019-05-14T10:51:23.194Z,17.36
2019-05-14T10:53:52.856Z,17.53
2019-05-14T10:56:22.286Z,18.14
2019-05-14T10:58:51.684Z,18.08
2019-05-14T11:01:22.708Z,17.62
2019-05-14T11:03:52.703Z,17.37
2019-05-14T11:06:22.176Z,17.84
2019-05-14T11:08:51.539Z,18.39
2019-05-14T11:11:21.053Z,18.45
2019-05-14T11:13:50.677Z,18.51
2019-05-14T11:16:20.191Z,18.14
2019-05-14T11:18:50.144Z,17.94
2019-05-14T11:21:26.473Z,17.49
2019-05-14T11:23:51.277Z,17.05
2019-05-14T11:26:20.754Z,17.28
2019-05-14T11:28:50.133Z,17.14
2019-05-14T11:31:19.674Z,17.25
2019-05-14T11:33:49.951Z,16.96
2019-05-14T11:36:19.492Z,16.86
2019-05-14T11:38:50.568Z,16.83
2019-05-14T11:41:20.773Z,16.58
2019-05-14T11:43:50.395Z,17.01
2019-05-14T11:46:33.502Z,17.68
2019-05-14T11:48:50.964Z,17.85
2019-05-14T11:51:45.751Z,17.53
2019-05-14T11:53:51.839Z,17.75
2019-05-14T11:56:21.363Z,17.86
2019-05-14T11:58:53.562Z,18.27
2019-05-14T12:01:23.306Z,18.21
2019-05-14T12:03:52.937Z,17.90
2019-05-14T12:06:22.373Z,17.69
2019-05-14T12:08:51.774Z,17.23
2019-05-14T12:11:21.309Z,16.91
2019-05-14T12:13:50.884Z,16.74
2019-05-14T12:16:20.352Z,17.49
2019-05-14T12:18:49.756Z,18.17
2019-05-14T12:21:19.387Z,18.23
2019-05-14T12:23:48.955Z,17.99
2019-05-14T12:26:19.062Z,18.74
2019-05-14T12:28:49.551Z,19.01
2019-05-14T12:31:19.280Z,19.80
2019-05-14T12:33:49.060Z,19.65
2019-05-14T12:36:19.406Z,19.00
2019-05-14T12:38:49.121Z,18.18
2019-05-14T12:41:19.279Z,18.86
2019-05-14T12:43:49.530Z,19.16
2019-05-14T12:46:20.128Z,19.65
2019-05-14T12:48:49.823Z,19.77
2019-05-14T12:51:19.301Z,19.07
2019-05-14T12:53:49.075Z,18.24
2019-05-14T12:56:19.028Z,18.71
2019-05-14T12:58:49.111Z,18.43
2019-05-14T13:01:20.114Z,18.82
2019-05-14T13:03:49.926Z,19.13
2019-05-14T13:06:19.450Z,19.63
2019-05-14T13:08:50.229Z,19.65
2019-05-14T13:11:19.762Z,20.21
2019-05-14T13:13:49.360Z,19.67
2019-05-14T13:16:19.549Z,18.82
2019-05-14T13:18:50.083Z,18.18
2019-05-14T13:21:19.960Z,18.10
2019-05-14T13:23:49.699Z,17.92
2019-05-14T13:26:19.247Z,17.38
2019-05-14T13:28:50.676Z,16.86
2019-05-14T13:31:20.148Z,16.69
2019-05-14T13:33:49.770Z,16.51
2019-05-14T13:36:20.704Z,16.20
2019-05-14T13:38:50.314Z,16.06
2019-05-14T13:41:19.880Z,16.11
2019-05-14T13:43:50.622Z,16.46
2019-05-14T13:46:20.200Z,17.15
2019-05-14T13:48:52.361Z,17.64
2019-05-14T13:51:21.859Z,17.32
2019-05-14T13:53:51.483Z,17.57
2019-05-14T13:56:20.928Z,17.41
2019-05-14T13:58:50.398Z,16.73
2019-05-14T14:01:19.916Z,16.61
2019-05-14T14:04:04.466Z,16.36
2019-05-14T14:06:21.089Z,16.52
2019-05-14T14:08:50.460Z,16.37
2019-05-14T14:11:20.003Z,16.26
2019-05-14T14:13:49.641Z,16.13
2019-05-14T14:16:19.935Z,16.64
2019-05-14T14:18:50.205Z,17.26
2019-05-14T14:21:20.205Z,17.49
2019-05-14T14:23:50.350Z,17.19
2019-05-14T14:26:19.802Z,17.34
2019-05-14T14:28:49.708Z,17.85
2019-05-14T14:31:19.313Z,18.51
2019-05-14T14:33:49.098Z,18.23
2019-05-14T14:36:20.038Z,18.33
2019-05-14T14:38:50.021Z,17.69
2019-05-14T14:41:19.841Z,17.15
2019-05-14T14:43:53.493Z,16.87
2019-05-14T14:46:20.966Z,16.43
2019-05-14T14:48:50.370Z,15.97
2019-05-14T14:51:19.854Z,15.66
2019-05-14T14:53:58.828Z,15.31
2019-05-14T14:56:20.603Z,15.25
2019-05-14T14:58:50.038Z,15.17
2019-05-14T15:01:20.033Z,15.17
2019-05-14T15:03:50.792Z,14.91
2019-05-14T15:06:20.828Z,14.79
2019-05-14T15:08:50.165Z,14.66
2019-05-14T15:11:19.701Z,14.76
2019-05-14T15:13:49.444Z,14.69
2019-05-14T15:16:20.144Z,14.86
2019-05-14T15:18:50.002Z,14.86
2019-05-14T15:21:19.630Z,14.82
2019-05-14T15:24:06.016Z,14.84
2019-05-14T15:26:20.956Z,14.65
2019-05-14T15:28:50.546Z,14.65
2019-05-14T15:31:20.016Z,14.59
2019-05-14T15:33:50.986Z,14.39
2019-05-14T15:36:20.735Z,14.35
2019-05-14T15:38:50.319Z,14.26
2019-05-14T15:41:20.491Z,14.31
2019-05-14T15:43:50.090Z,14.23
2019-05-14T15:46:19.626Z,14.12
2019-05-14T15:48:49.199Z,14.27
2019-05-14T15:51:19.641Z,14.27
2019-05-14T15:54:05.485Z,14.23
2019-05-14T15:56:20.565Z,14.22
2019-05-14T15:58:50.171Z,14.17
2019-05-14T16:01:19.644Z,14.17
2019-05-14T16:03:48.979Z,14.11
2019-05-14T16:06:19.403Z,14.18
2019-05-14T16:08:49.139Z,14.23
2019-05-14T16:11:18.902Z,14.22
2019-05-14T16:13:49.386Z,14.27
2019-05-14T16:16:19.766Z,14.27
2019-05-14T16:18:49.430Z,14.22
2019-05-14T16:21:18.885Z,14.22
2019-05-14T16:23:48.364Z,14.27
2019-05-14T16:26:18.701Z,14.29
2019-05-14T16:28:48.523Z,14.31
2019-05-14T16:31:18.534Z,14.22
2019-05-14T16:33:49.276Z,14.17
2019-05-14T16:36:19.456Z,14.13
2019-05-14T16:38:49.459Z,14.09
2019-05-14T16:41:19.037Z,14.09
2019-05-14T16:43:49.460Z,14.12
2019-05-14T16:46:19.466Z,14.06
2019-05-14T16:48:49.133Z,14.05
2019-05-14T16:51:19.487Z,14.15
2019-05-14T16:53:49.654Z,14.24
2019-05-14T16:56:19.648Z,14.36
2019-05-14T16:58:49.217Z,14.36
2019-05-14T17:01:19.663Z,14.36
2019-05-14T17:03:49.547Z,14.38
2019-05-14T17:06:19.851Z,14.39
2019-05-14T17:08:49.420Z,14.34
2019-05-14T17:11:18.878Z,14.32
2019-05-14T17:13:48.926Z,14.32
2019-05-14T17:16:19.485Z,14.37
2019-05-14T17:18:49.373Z,14.37
2019-05-14T17:21:18.797Z,14.45
2019-05-14T17:23:48.918Z,14.43
2019-05-14T17:26:18.906Z,14.47
2019-05-14T17:28:49.025Z,14.42
2019-05-14T17:31:19.142Z,14.48
2019-05-14T17:33:49.265Z,14.39
2019-05-14T17:36:19.203Z,14.39
2019-05-14T17:38:49.353Z,14.41
2019-05-14T17:41:19.607Z,14.30
2019-05-14T17:43:49.514Z,14.30
2019-05-14T17:46:19.282Z,14.41
2019-05-14T17:48:48.937Z,14.41
2019-05-14T17:51:18.485Z,14.35
2019-05-14T17:53:48.291Z,14.27
2019-05-14T17:56:19.163Z,14.22
2019-05-14T17:58:49.318Z,14.24
2019-05-14T18:01:18.844Z,14.24
2019-05-14T18:03:49.114Z,14.30
2019-05-14T18:06:19.125Z,14.24
2019-05-14T18:08:48.704Z,14.23
2019-05-14T18:11:19.106Z,14.18
2019-05-14T18:13:48.963Z,14.13
2019-05-14T18:16:19.130Z,14.13
2019-05-14T18:18:49.556Z,14.16
2019-05-14T18:21:19.624Z,14.06
2019-05-14T18:23:49.383Z,14.12
2019-05-14T18:26:20.116Z,14.21
2019-05-14T18:28:49.670Z,14.18
2019-05-14T18:31:20.586Z,14.12
2019-05-14T18:33:50.351Z,14.11
2019-05-14T18:36:19.871Z,14.04
2019-05-14T18:38:49.631Z,13.99
2019-05-14T18:41:19.436Z,14.05
2019-05-14T18:43:48.969Z,14.00
2019-05-14T18:46:19.153Z,13.93
2019-05-14T18:48:49.300Z,13.96
2019-05-14T18:51:19.708Z,13.89
2019-05-14T18:53:49.338Z,13.84
2019-05-14T18:56:24.259Z,13.82
2019-05-14T18:58:51.097Z,13.79
2019-05-14T19:01:20.555Z,13.66
2019-05-14T19:03:50.309Z,13.66
2019-05-14T19:06:19.819Z,13.78
2019-05-14T19:08:49.232Z,13.84
2019-05-14T19:11:18.709Z,13.88
2019-05-14T19:13:48.539Z,13.88
2019-05-14T19:16:18.005Z,13.86
2019-05-14T19:18:48.947Z,13.80
2019-05-14T19:21:18.427Z,13.82
2019-05-14T19:23:49.273Z,13.82
2019-05-14T19:26:33.082Z,13.82
2019-05-14T19:28:49.953Z,13.78
2019-05-14T19:31:22.674Z,13.80
2019-05-14T19:33:52.049Z,13.77
2019-05-14T19:36:21.728Z,13.79
2019-05-14T19:38:51.097Z,13.86
2019-05-14T19:41:23.086Z,13.82
2019-05-14T19:43:52.661Z,13.84
2019-05-14T19:46:22.021Z,13.87
2019-05-14T19:48:51.419Z,13.90
2019-05-14T19:51:20.841Z,13.87
2019-05-14T19:53:52.466Z,13.87
2019-05-14T19:56:21.441Z,13.95
2019-05-14T19:58:50.949Z,14.03
2019-05-14T20:01:20.478Z,14.03
2019-05-14T20:03:49.946Z,14.11
2019-05-14T20:06:19.330Z,14.17
2019-05-14T20:08:48.776Z,14.20
2019-05-14T20:11:19.263Z,14.20
2019-05-14T20:13:49.004Z,14.19
2019-05-14T20:16:18.618Z,14.16
2019-05-14T20:18:48.817Z,14.25
2019-05-14T20:21:18.333Z,14.25
2019-05-14T20:23:48.230Z,14.23
2019-05-14T20:26:17.701Z,14.01
2019-05-14T20:28:48.367Z,13.79
2019-05-14T20:31:18.252Z,13.77
2019-05-14T20:33:48.551Z,13.53
2019-05-14T20:36:18.775Z,13.31
2019-05-14T20:38:48.326Z,12.87
2019-05-14T20:41:18.109Z,12.38
2019-05-14T20:43:48.121Z,12.26
2019-05-14T20:46:18.596Z,12.22
2019-05-14T20:48:48.163Z,12.02
2019-05-14T20:51:18.611Z,11.74
2019-05-14T20:53:48.849Z,11.55
2019-05-14T20:56:19.027Z,11.08
2019-05-14T20:58:48.656Z,10.55
2019-05-14T21:01:18.550Z,10.18
2019-05-14T21:03:48.422Z,10.09
2019-05-14T21:06:18.851Z,9.77
2019-05-14T21:08:49.068Z,9.54
2019-05-14T21:11:19.081Z,9.30
2019-05-14T21:13:50.331Z,9.26
2019-05-14T21:16:19.863Z,9.21
2019-05-14T21:18:49.232Z,9.20
2019-05-14T21:21:18.703Z,9.30
2019-05-14T21:23:49.024Z,9.24
2019-05-14T21:26:19.450Z,9.10
2019-05-14T21:28:48.940Z,8.90
2019-05-14T21:31:18.358Z,8.93
2019-05-14T21:33:48.964Z,8.92
2019-05-14T21:36:19.368Z,8.81
2019-05-14T21:38:49.479Z,8.72
2019-05-14T21:41:20.517Z,8.86
2019-05-14T21:43:50.082Z,8.78
2019-05-14T21:46:19.606Z,8.63
2019-05-14T21:48:48.935Z,8.63
2019-05-14T21:51:18.282Z,8.72
2019-05-14T21:53:48.248Z,8.71
2019-05-14T21:56:18.514Z,8.63
2019-05-14T21:58:48.890Z,8.54
2019-05-14T22:01:18.998Z,8.46
2019-05-14T22:03:48.658Z,8.43
2019-05-14T22:06:18.330Z,8.35
2019-05-14T22:08:48.834Z,8.29
2019-05-14T22:11:18.948Z,8.27
2019-05-14T22:13:49.647Z,8.30
2019-05-14T22:16:19.157Z,8.41
2019-05-14T22:18:48.540Z,8.41
2019-05-14T22:21:18.367Z,8.50
2019-05-14T22:23:48.240Z,8.53
2019-05-14T22:26:18.630Z,8.55
2019-05-14T22:28:48.175Z,8.63
2019-05-14T22:31:19.294Z,8.66
2019-05-14T22:33:48.630Z,8.67
2019-05-14T22:36:21.395Z,8.64
2019-05-14T22:38:49.125Z,8.62
2019-05-14T22:41:18.593Z,8.64
2019-05-14T22:43:48.754Z,8.52
2019-05-14T22:46:19.061Z,8.54
2019-05-14T22:48:48.907Z,8.66
2019-05-14T22:51:19.472Z,8.76
2019-05-14T22:53:49.461Z,8.82
2019-05-14T22:56:18.953Z,8.71
2019-05-14T22:58:48.947Z,8.64
2019-05-14T23:01:18.687Z,8.72
2019-05-14T23:03:49.043Z,8.80
2019-05-14T23:06:18.962Z,8.78
2019-05-14T23:08:48.910Z,8.90
2019-05-14T23:11:19.719Z,8.88
2019-05-14T23:13:49.383Z,8.73
2019-05-14T23:16:30.912Z,8.67
2019-05-14T23:18:49.815Z,8.61
2019-05-14T23:21:19.158Z,8.60
2019-05-14T23:23:48.515Z,8.56
2019-05-14T23:26:19.220Z,8.54
2019-05-14T23:28:49.435Z,8.69
2019-05-14T23:31:18.775Z,8.46
2019-05-14T23:33:49.043Z,8.53
2019-05-14T23:36:18.527Z,8.48
2019-05-14T23:38:49.272Z,8.52
2019-05-14T23:41:19.060Z,8.61
2019-05-14T23:43:48.462Z,8.74
2019-05-14T23:46:19.875Z,8.78
2019-05-14T23:48:49.240Z,8.81
2019-05-14T23:51:18.601Z,8.88
2019-05-14T23:53:48.402Z,8.97
2019-05-14T23:56:19.309Z,8.97
2019-05-14T23:58:55.760Z,8.95
